createdAt,value
2024-04-09T01:33:40.448Z,20.1
2024-04-09T01:53:22.925Z,19.4
2024-04-09T01:59:16.194Z,19.2
2024-04-09T02:05:08.847Z,19.3
2024-04-09T02:11:02.101Z,19.5
2024-04-09T02:16:55.205Z,19.2
2024-04-09T02:22:47.956Z,18.9
2024-04-09T02:28:40.609Z,19
2024-04-09T02:34:34.437Z,19
2024-04-09T02:40:25.933Z,19.2
2024-04-09T02:46:17.143Z,19.5
2024-04-09T02:52:09.301Z,19.2
2024-04-09T02:58:01.327Z,19.2
2024-04-09T03:03:54.208Z,19.3
2024-04-09T03:09:48.026Z,19.3
2024-04-09T03:15:42.025Z,18.9
2024-04-09T03:21:35.372Z,18.1
2024-04-09T03:27:29.289Z,18.6
2024-04-09T03:33:21.992Z,18.8
2024-04-09T03:39:15.411Z,18.7
2024-04-09T03:45:08.649Z,18.9
2024-04-09T03:51:01.842Z,18.5
2024-04-09T03:56:54.877Z,18.5
2024-04-09T04:02:47.838Z,18.6
2024-04-09T04:08:40.471Z,18.5
2024-04-09T04:14:32.786Z,18.3
2024-04-09T04:20:26.233Z,18.5
2024-04-09T04:26:18.365Z,18.5
2024-04-09T04:32:11.630Z,18.2
2024-04-09T04:38:04.087Z,18.1
2024-04-09T04:43:56.365Z,18.4
2024-04-09T04:49:49.038Z,18.5
2024-04-09T04:55:41.376Z,18.1
2024-04-09T05:01:34.075Z,18.3
2024-04-09T05:07:27.264Z,18.5
2024-04-09T05:13:19.657Z,18
2024-04-09T05:19:13.176Z,18.2
2024-04-09T05:25:09.668Z,18.1
2024-04-09T05:31:02.265Z,18
2024-04-09T05:36:54.989Z,18.2
2024-04-09T05:42:48.915Z,18.3
2024-04-09T05:48:41.938Z,18
2024-04-09T05:54:45.652Z,17.8
2024-04-09T06:00:38.496Z,18.1
2024-04-09T06:06:38.344Z,18
2024-04-09T06:12:34.662Z,18.1
2024-04-09T06:25:36.616Z,18
2024-04-09T06:31:54.014Z,17.7
2024-04-09T07:18:10.207Z,15.4
2024-04-09T07:30:58.761Z,15.2
2024-04-09T07:37:26.267Z,15.3
2024-04-09T08:58:09.706Z,15.1
2024-04-09T09:10:54.479Z,15.2
2024-04-09T09:37:39.259Z,14.4
2024-04-09T09:50:25.804Z,14.1
2024-04-09T09:56:31.944Z,14.3
2024-04-09T10:02:26.580Z,14.7
2024-04-09T10:29:09.555Z,15.3
2024-04-09T10:35:20.846Z,14.9
2024-04-09T10:41:14.884Z,14.7
2024-04-09T11:27:55.481Z,14.8
2024-04-09T11:40:52.959Z,15.2
2024-04-09T11:47:10.012Z,15.1
2024-04-09T11:53:12.343Z,15.5
2024-04-09T12:05:54.923Z,15.8
2024-04-09T12:26:21.643Z,15.8
2024-04-09T12:46:18.967Z,16.3
2024-04-09T12:52:53.927Z,16.2
2024-04-09T12:59:47.782Z,16.3
2024-04-09T13:06:52.570Z,16.5
2024-04-09T13:32:09.009Z,16.3
2024-04-09T13:51:41.230Z,16.4
2024-04-09T13:57:42.942Z,16.3
2024-04-09T14:10:56.248Z,16.1
2024-04-09T14:16:50.546Z,16.2
2024-04-09T15:08:06.456Z,15.8
2024-04-09T15:14:04.699Z,15.6
2024-04-09T15:26:55.399Z,15.4
2024-04-09T15:46:37.739Z,15.1
2024-04-09T15:52:29.778Z,15.2
2024-04-09T16:24:49.568Z,15.1
2024-04-09T16:37:35.717Z,15
2024-04-09T16:43:28.497Z,15
2024-04-09T16:49:20.340Z,15.1
2024-04-09T16:55:13.477Z,15.4
2024-04-09T17:14:51.974Z,14.8
2024-04-09T17:20:49.950Z,14.9
2024-04-09T17:26:44.572Z,15
2024-04-09T17:32:38.669Z,15
2024-04-09T17:38:32.714Z,14.9
2024-04-09T17:44:41.803Z,14.7
2024-04-09T18:39:05.922Z,13.3
2024-04-09T19:52:37.205Z,13.4
2024-04-09T20:19:09.315Z,12.9
2024-04-09T20:58:29.348Z,12.6
2024-04-09T21:04:31.846Z,12.6
2024-04-09T21:10:41.428Z,12.3
2024-04-09T21:16:36.952Z,12.4
2024-04-09T22:57:36.061Z,12.1
2024-04-09T23:10:01.099Z,11.9
2024-04-09T23:22:21.368Z,11.8
